SBP weather

San Luis County Regional Airport
San Luis Obispo, California, United States

Public forecast

Using degrees Fahrenheit for public forecast. Weather courtesy of forecast.io.

METAR (pilot weather report)

Retrieved 2019/04/24 08:56 UTC (39 minutes ago):

KSBP 240856Z AUTO 00000KT 10SM CLR 12/09 A2995 RMK AO2 SLP138 T01170094 58002

TAF (pilot weather forecast)

Retrieved 2019/04/24 06:33 UTC (3 hours ago):

TAF KSBP 240531Z 2406/2506 VRB03KT P6SM SKC FM242000 30010KT P6SM SKC FM250400 VRB03KT P6SM SKC